Time;durP1;ratioP1;P1;durP2;ratioP2;P2;SDS_P1;SDS_P2;PMS_P1;PMS_P2;Temp;Humidity;BMP_temperature;BMP_pressure;BME280_temperature;BME280_humidity;BME280_pressure;Samples;Min_cycle;Max_cycle;Signal;HPM_P1;HPM_P2
2022/03/26 00:00:26;;;;;;;23.57;14.77;;;13.80;39.10;;;-142.21;39.80;112049.66;4954629;28;20490;-80
2022/03/26 00:02:53;;;;;;;24.97;15.13;;;13.80;38.90;;;-142.21;39.53;112049.66;4934551;29;20839;-78
2022/03/26 00:05:21;;;;;;;22.87;14.87;;;13.90;38.60;;;-142.21;38.53;112049.66;4934849;29;20978;-76
2022/03/26 00:07:49;;;;;;;24.37;15.20;;;13.90;38.60;;;-142.21;38.23;112049.66;4943777;29;20567;-79
2022/03/26 00:10:17;;;;;;;22.70;14.13;;;13.90;37.80;;;-142.21;38.90;112049.66;4954454;28;20479;-79
2022/03/26 00:12:45;;;;;;;24.43;15.33;;;13.90;38.50;;;-142.21;39.17;112049.66;4954028;28;20539;-80
2022/03/26 00:15:13;;;;;;;24.23;14.43;;;13.90;38.40;;;-142.21;38.35;112049.66;4953687;29;20960;-80
2022/03/26 00:17:41;;;;;;;23.27;14.90;;;14.10;38.10;;;-142.21;37.80;112049.66;4961976;28;20455;-79
2022/03/26 00:20:10;;;;;;;24.43;14.90;;;14.10;37.50;;;-142.21;37.85;112049.66;4972860;28;20488;-79
2022/03/26 00:22:37;;;;;;;23.50;15.43;;;14.20;37.60;;;-142.21;37.98;112049.66;4956778;28;20555;-79
2022/03/26 00:25:06;;;;;;;23.10;14.87;;;14.30;37.30;;;-142.21;38.46;112049.66;4972961;28;20468;-80
2022/03/26 00:27:34;;;;;;;22.77;14.27;;;14.30;37.30;;;-142.21;37.67;112049.66;4957702;28;20885;-80
2022/03/26 00:30:04;;;;;;;25.53;15.23;;;14.20;37.10;;;-142.21;38.22;112049.66;4953728;28;20459;-80
2022/03/26 00:32:31;;;;;;;23.70;15.27;;;14.30;37.00;;;-142.21;37.74;112049.66;4954014;28;20946;-80
2022/03/26 00:34:58;;;;;;;22.23;14.87;;;14.20;36.80;;;-142.21;37.36;112049.66;4953679;28;20536;-79
2022/03/26 00:37:26;;;;;;;25.67;15.23;;;14.20;37.00;;;-142.21;37.17;112049.66;4934783;29;20474;-79
2022/03/26 00:39:54;;;;;;;24.93;14.70;;;14.20;37.20;;;-142.21;37.99;112049.66;4935173;29;20461;-79
2022/03/26 00:42:21;;;;;;;20.80;14.07;;;14.30;37.10;;;-142.21;37.54;112049.66;4935552;29;20517;-80
2022/03/26 00:44:48;;;;;;;25.47;14.90;;;14.30;36.60;;;-142.21;37.46;112049.66;4938992;29;20833;-77
2022/03/26 00:47:17;;;;;;;23.60;14.43;;;14.40;36.70;;;-142.21;37.29;112049.66;4951917;29;20918;-78
2022/03/26 00:49:44;;;;;;;24.27;14.17;;;14.30;36.80;;;-142.21;37.40;112049.66;4957690;28;20487;-80
2022/03/26 00:52:11;;;;;;;22.80;15.10;;;14.30;37.20;;;-142.21;37.12;112049.66;4957300;28;20533;-80
2022/03/26 00:54:38;;;;;;;27.00;14.63;;;14.20;36.40;;;-142.21;37.22;112049.66;4957415;28;20459;-80
2022/03/26 00:57:06;;;;;;;24.60;15.13;;;14.20;36.60;;;-142.21;38.59;112049.66;4957475;28;20445;-79
2022/03/26 00:59:33;;;;;;;23.80;14.50;;;14.20;36.60;;;-142.21;36.88;112049.66;4957508;28;20456;-79
2022/03/26 01:02:00;;;;;;;22.23;13.87;;;14.10;37.10;;;-142.21;38.12;112049.66;4957253;28;20470;-79
2022/03/26 01:04:29;;;;;;;26.57;14.93;;;14.10;36.90;;;-142.21;37.38;112049.66;4956980;28;20809;-80
2022/03/26 01:06:56;;;;;;;23.97;13.97;;;14.10;36.80;;;-142.21;37.29;112049.66;4938301;29;20580;-79
2022/03/26 01:09:23;;;;;;;19.97;13.87;;;14.10;37.00;;;-142.21;37.22;112049.66;4944360;29;20896;-80
2022/03/26 01:11:50;;;;;;;22.33;14.80;;;14.10;36.70;;;-142.21;37.28;112049.66;4957113;28;21008;-79
2022/03/26 01:14:18;;;;;;;24.63;13.23;;;14.10;36.60;;;-142.21;37.54;112049.66;4956708;28;20465;-80
2022/03/26 01:16:45;;;;;;;24.10;14.00;;;14.20;36.80;;;-142.21;37.08;112049.66;4957667;29;20444;-80
2022/03/26 01:19:12;;;;;;;23.33;13.83;;;14.30;36.60;;;-142.21;37.03;112049.66;4956987;29;20957;-80
2022/03/26 01:21:40;;;;;;;26.90;14.57;;;14.30;36.30;;;-142.21;37.91;112049.66;4956841;28;20448;-79
2022/03/26 01:24:08;;;;;;;23.23;13.83;;;14.30;37.00;;;-142.21;38.09;112049.66;4937780;29;20866;-78
2022/03/26 01:26:35;;;;;;;21.90;13.60;;;14.30;37.70;;;-142.21;37.83;112049.66;4950754;29;20492;-80
2022/03/26 01:29:02;;;;;;;21.67;13.43;;;14.10;36.00;;;-142.21;38.52;112049.66;4955720;29;20491;-80
2022/03/26 01:31:30;;;;;;;23.27;14.00;;;14.10;37.00;;;-142.21;37.78;112049.66;4936964;29;20985;-78
2022/03/26 01:33:57;;;;;;;22.73;14.30;;;14.10;37.00;;;-142.21;38.85;112049.66;4937748;29;20485;-80
2022/03/26 01:36:24;;;;;;;25.50;13.83;;;14.20;37.50;;;-142.21;38.20;112049.66;4937500;29;20955;-80
2022/03/26 01:38:53;;;;;;;19.20;13.47;;;14.20;37.60;;;-142.21;38.12;112049.66;4937106;29;20504;-80
2022/03/26 01:41:21;;;;;;;22.70;14.27;;;14.20;37.40;;;-142.21;38.79;112049.66;4937296;29;20536;-79
2022/03/26 01:43:48;;;;;;;21.50;14.40;;;14.20;37.20;;;-142.21;39.26;112049.66;4937410;29;20561;-79
2022/03/26 01:46:15;;;;;;;20.77;14.17;;;14.10;37.70;;;-142.21;38.94;112049.66;4937244;29;21120;-80
2022/03/26 01:48:43;;;;;;;20.53;13.30;;;14.00;37.60;;;-142.21;39.76;112049.66;4937462;29;20817;-80
2022/03/26 01:51:17;;;;;;;27.77;14.10;;;14.00;37.60;;;-142.21;38.99;112049.66;4937178;29;20536;-79
2022/03/26 01:53:48;;;;;;;20.47;13.20;;;13.80;37.40;;;-142.21;39.37;112049.66;4935729;29;20476;-78
2022/03/26 01:56:18;;;;;;;26.10;13.90;;;13.80;37.70;;;-142.21;40.21;112049.66;4937146;29;20958;-78
2022/03/26 01:58:46;;;;;;;21.17;14.03;;;13.70;38.30;;;-142.21;39.52;112049.66;4955175;29;20481;-79
2022/03/26 02:01:13;;;;;;;21.47;14.50;;;13.60;37.90;;;-142.21;39.64;112049.66;4937274;29;20488;-80
2022/03/26 02:03:41;;;;;;;22.93;14.23;;;13.60;38.00;;;-142.21;40.03;112049.66;4937449;29;20490;-80
2022/03/26 02:06:08;;;;;;;23.23;14.03;;;13.60;37.90;;;-142.21;39.84;112049.66;4946947;29;20464;-80
2022/03/26 02:08:36;;;;;;;25.43;14.27;;;13.50;38.20;;;-142.21;40.32;112049.66;4956508;28;20816;-79
2022/03/26 02:11:04;;;;;;;23.47;14.93;;;13.40;38.40;;;-142.21;40.57;112049.66;4955476;28;20456;-80
2022/03/26 02:13:52;;;;;;;22.67;13.97;;;13.30;38.60;;;-142.21;40.30;112049.66;4956443;29;20445;-80
2022/03/26 02:16:20;;;;;;;23.30;13.30;;;13.30;38.90;;;-142.21;40.62;112049.66;4937113;29;20552;-79
2022/03/26 02:18:47;;;;;;;22.93;14.27;;;13.20;39.20;;;-142.21;40.91;112049.66;4956283;28;20453;-78
2022/03/26 02:21:17;;;;;;;21.00;13.97;;;13.20;39.30;;;-142.21;40.96;112049.66;4955721;29;20487;-77
2022/03/26 02:23:45;;;;;;;21.70;13.57;;;13.10;39.20;;;-142.21;40.75;112049.66;4955774;28;20995;-80
2022/03/26 02:26:16;;;;;;;21.17;14.00;;;13.10;39.10;;;-142.21;40.72;112049.66;4955191;28;20453;-79
2022/03/26 02:28:44;;;;;;;19.77;13.63;;;13.10;39.20;;;-142.21;41.01;112049.66;4955929;29;20449;-79
2022/03/26 02:31:12;;;;;;;24.80;14.63;;;13.00;39.10;;;-142.21;40.91;112049.66;4934575;29;20458;-79
2022/03/26 02:33:40;;;;;;;22.97;14.20;;;13.00;39.00;;;-142.21;40.99;112049.66;4936836;29;20453;-80
2022/03/26 02:36:09;;;;;;;21.97;14.17;;;13.00;39.10;;;-142.21;41.04;112049.66;4936361;29;20485;-79
2022/03/26 02:38:39;;;;;;;22.93;14.83;;;12.90;39.00;;;-142.21;40.78;112049.66;4936603;29;20449;-79
2022/03/26 02:41:08;;;;;;;21.50;14.13;;;12.80;39.40;;;-142.21;41.53;112049.66;4951039;29;20504;-79
2022/03/26 02:43:35;;;;;;;21.93;14.07;;;12.70;39.70;;;-142.21;41.49;112049.66;4955838;28;20469;-79
2022/03/26 02:46:03;;;;;;;23.53;14.80;;;12.60;39.70;;;-142.21;41.64;112049.66;4955909;28;20879;-80
2022/03/26 02:48:31;;;;;;;24.23;14.80;;;12.60;39.70;;;-142.21;41.66;112049.66;4955048;28;20504;-80
2022/03/26 02:50:58;;;;;;;23.57;14.40;;;12.60;39.90;;;-142.21;41.44;112049.66;4955396;28;20449;-79
2022/03/26 02:53:26;;;;;;;22.80;15.13;;;12.50;39.70;;;-142.21;41.87;112049.66;4954959;28;20492;-79
2022/03/26 02:55:54;;;;;;;23.67;13.93;;;12.50;40.10;;;-142.21;41.71;112049.66;4955282;28;20531;-79
2022/03/26 02:58:22;;;;;;;22.73;14.03;;;12.40;40.10;;;-142.21;41.94;112049.66;4954191;28;20547;-79
2022/03/26 03:00:49;;;;;;;20.63;14.20;;;12.40;40.30;;;-142.21;41.90;112049.66;4955312;29;20543;-80
2022/03/26 03:03:16;;;;;;;22.97;13.67;;;12.40;40.40;;;-142.21;41.80;112049.66;4955336;28;20456;-80
2022/03/26 03:05:46;;;;;;;21.63;14.17;;;12.40;40.10;;;-142.21;41.82;112049.66;4954344;28;22226;-80
2022/03/26 03:08:14;;;;;;;20.57;13.70;;;12.30;40.20;;;-142.21;42.25;112049.66;4955170;29;20568;-79
2022/03/26 03:10:42;;;;;;;24.50;14.43;;;12.30;41.00;;;-142.21;42.14;112049.66;4954373;28;20463;-77
2022/03/26 03:13:11;;;;;;;23.63;14.67;;;12.20;40.20;;;-142.21;42.11;112049.66;4955014;28;20452;-80
2022/03/26 03:15:38;;;;;;;21.73;14.60;;;12.10;40.60;;;-142.21;42.75;112049.66;4954492;28;20881;-79
2022/03/26 03:18:06;;;;;;;22.87;13.70;;;12.10;40.70;;;-142.21;42.49;112049.66;4955026;28;20449;-79
2022/03/26 03:20:33;;;;;;;21.97;13.27;;;12.10;40.60;;;-142.21;42.72;112049.66;4955461;29;20453;-78
2022/03/26 03:23:00;;;;;;;22.90;14.43;;;12.00;40.60;;;-142.21;42.98;112049.66;4954590;28;20614;-78
2022/03/26 03:25:29;;;;;;;21.83;13.80;;;12.00;40.60;;;-142.21;43.10;112049.66;4954680;28;20457;-79
2022/03/26 03:27:58;;;;;;;22.07;14.73;;;12.00;40.60;;;-142.21;43.22;112049.66;4955815;28;20488;-80
2022/03/26 03:30:27;;;;;;;18.40;12.60;;;11.80;41.00;;;-142.21;43.12;112049.66;4957082;29;20449;-78
2022/03/26 03:32:55;;;;;;;23.30;14.10;;;11.70;41.20;;;-142.21;43.29;112049.66;4955897;28;21029;-80
2022/03/26 03:35:22;;;;;;;23.37;14.63;;;11.60;41.30;;;-142.21;43.49;112049.66;4954736;28;20543;-79
2022/03/26 03:37:50;;;;;;;19.87;13.23;;;11.60;41.30;;;-142.21;43.37;112049.66;4954123;28;20448;-80
2022/03/26 03:40:17;;;;;;;20.97;14.37;;;11.50;41.50;;;-142.21;43.40;112049.66;4954446;29;20459;-79
2022/03/26 03:42:45;;;;;;;21.30;14.27;;;11.40;41.60;;;-142.21;43.47;112049.66;4954410;28;20456;-80
2022/03/26 03:45:12;;;;;;;21.53;14.23;;;11.30;42.10;;;-142.21;43.74;112049.66;4954546;28;20464;-80
2022/03/26 03:47:41;;;;;;;23.37;15.07;;;11.20;42.10;;;-142.21;43.76;112049.66;4954624;28;20579;-80
2022/03/26 03:50:09;;;;;;;24.07;14.73;;;11.20;42.30;;;-142.21;44.04;112049.66;4953998;28;20930;-79
2022/03/26 03:52:37;;;;;;;22.00;14.27;;;11.10;42.40;;;-142.21;44.33;112049.66;4954276;28;20492;-80
2022/03/26 03:55:06;;;;;;;21.93;13.67;;;11.10;42.10;;;-142.21;44.67;112049.66;4953485;28;20463;-79
2022/03/26 03:57:34;;;;;;;24.43;14.60;;;11.20;42.60;;;-142.21;44.44;112049.66;4954228;28;20452;-79
2022/03/26 04:00:02;;;;;;;24.20;14.50;;;11.10;42.40;;;-142.21;44.99;112049.66;4953611;28;20508;-79
2022/03/26 04:02:31;;;;;;;22.87;14.00;;;11.10;42.50;;;-142.21;45.22;112049.66;4954594;28;20532;-78
2022/03/26 04:04:59;;;;;;;25.70;14.10;;;11.10;42.30;;;-142.21;46.25;112049.66;4954082;28;20539;-80
2022/03/26 04:07:27;;;;;;;24.70;14.70;;;11.10;42.80;;;-142.21;47.57;112049.66;4954233;29;20511;-79
2022/03/26 04:09:54;;;;;;;23.83;13.90;;;11.10;43.20;;;-142.21;47.99;112049.66;4954156;28;20484;-79
2022/03/26 04:12:21;;;;;;;21.60;14.20;;;11.10;43.20;;;-142.21;47.93;112049.66;4953431;28;20461;-80
2022/03/26 04:14:48;;;;;;;22.23;13.93;;;11.10;43.80;;;-142.21;48.11;112049.66;4953857;28;20462;-79
2022/03/26 04:17:15;;;;;;;21.63;13.33;;;11.10;43.80;;;-142.21;49.38;112049.66;4952366;28;21013;-80
2022/03/26 04:19:43;;;;;;;21.40;14.57;;;11.10;43.90;;;-142.21;51.68;112049.66;4953964;28;20487;-79
2022/03/26 04:22:11;;;;;;;21.87;13.97;;;11.10;44.80;;;-142.21;53.86;112049.66;4953358;28;20453;-79
2022/03/26 04:24:40;;;;;;;22.30;13.57;;;11.10;45.50;;;-142.21;53.84;112049.66;4953783;29;20502;-79
2022/03/26 04:27:09;;;;;;;21.87;13.67;;;11.10;44.90;;;-142.21;56.87;112049.66;4954209;28;20459;-80
2022/03/26 04:29:37;;;;;;;25.73;14.97;;;11.00;45.10;;;-142.21;59.46;112049.66;4953616;28;20496;-79
2022/03/26 04:32:05;;;;;;;24.37;14.50;;;10.90;46.50;;;-142.21;60.62;112049.66;4954210;28;20488;-80
2022/03/26 04:34:33;;;;;;;20.63;13.83;;;10.90;45.90;;;-142.21;58.33;112049.66;4953242;28;20456;-79
2022/03/26 04:37:00;;;;;;;22.33;12.50;;;10.80;45.40;;;-142.21;58.10;112049.66;4954296;28;20519;-79
2022/03/26 04:39:29;;;;;;;21.73;13.90;;;10.90;45.10;;;-142.21;56.80;112049.66;4952695;28;20480;-79
2022/03/26 04:41:56;;;;;;;19.80;13.47;;;10.80;45.20;;;-142.21;56.63;112049.66;4954206;28;20453;-79
2022/03/26 04:44:23;;;;;;;20.00;13.00;;;10.50;45.50;;;-142.21;55.47;112049.66;4952980;28;20520;-79
2022/03/26 04:46:51;;;;;;;21.87;13.63;;;10.30;45.30;;;-142.21;54.86;112049.66;4954188;28;20445;-79
2022/03/26 04:49:19;;;;;;;22.60;13.67;;;10.00;45.30;;;-142.21;55.32;112049.66;4936144;29;20488;-79
2022/03/26 04:51:46;;;;;;;23.60;14.03;;;9.70;47.20;;;-142.21;56.81;112049.66;4933975;29;21340;-79
2022/03/26 04:54:14;;;;;;;20.43;12.33;;;9.70;47.50;;;-142.21;58.59;112049.66;4934744;29;20460;-79
2022/03/26 04:56:43;;;;;;;21.70;13.97;;;9.70;47.90;;;-142.21;60.41;112049.66;4934614;29;20904;-80
2022/03/26 04:59:10;;;;;;;24.90;14.10;;;9.70;48.20;;;-142.21;61.13;112049.66;4934636;29;20521;-80
2022/03/26 05:01:37;;;;;;;22.57;13.37;;;9.70;48.00;;;-142.21;60.99;112049.66;4934476;29;20482;-80
2022/03/26 05:04:05;;;;;;;19.20;12.67;;;9.70;48.10;;;-142.21;61.38;112049.66;4941524;29;20961;-81
2022/03/26 05:06:32;;;;;;;19.87;13.03;;;9.80;48.30;;;-142.21;61.69;112049.66;4953546;28;21051;-80
2022/03/26 05:08:59;;;;;;;21.10;12.93;;;9.80;47.80;;;-142.21;62.30;112049.66;4953255;28;20496;-79
2022/03/26 05:11:27;;;;;;;20.70;12.87;;;9.80;47.80;;;-142.21;62.57;112049.66;4953614;28;20547;-79
2022/03/26 05:13:55;;;;;;;21.47;13.57;;;9.80;47.80;;;-142.21;63.51;112049.66;4952896;29;20507;-79
2022/03/26 05:16:22;;;;;;;23.13;13.50;;;9.80;47.90;;;-142.21;62.78;112049.66;4953508;28;20549;-78
2022/03/26 05:18:49;;;;;;;19.83;12.10;;;9.80;47.60;;;-142.21;61.81;112049.66;4952995;28;20441;-80
2022/03/26 05:21:16;;;;;;;21.67;12.90;;;9.80;47.50;;;-142.21;63.43;112049.66;4953865;28;20453;-80
2022/03/26 05:23:44;;;;;;;20.90;12.70;;;9.80;47.80;;;-142.21;63.10;112049.66;4953273;28;21068;-79
2022/03/26 05:26:11;;;;;;;21.17;13.00;;;9.80;47.80;;;-142.21;61.51;112049.66;4953939;28;20457;-79
2022/03/26 05:28:38;;;;;;;22.23;13.40;;;9.80;47.60;;;-142.21;61.30;112049.66;4954665;28;20531;-79
2022/03/26 05:31:07;;;;;;;24.73;12.80;;;9.80;47.30;;;-142.21;61.41;112049.66;4956448;28;20453;-79
2022/03/26 05:33:34;;;;;;;20.03;12.80;;;9.80;47.70;;;-142.21;61.17;112049.66;4956909;28;20444;-80
2022/03/26 05:36:01;;;;;;;22.67;13.03;;;9.80;47.80;;;-142.21;61.60;112049.66;4939616;29;20461;-80
2022/03/26 05:38:28;;;;;;;18.10;12.23;;;9.70;48.00;;;-142.21;60.02;112049.66;4956716;28;20484;-80
2022/03/26 05:40:55;;;;;;;24.90;13.67;;;9.60;48.10;;;-142.21;60.21;112049.66;4956699;28;20491;-80
2022/03/26 05:43:23;;;;;;;22.50;13.47;;;9.40;48.30;;;-142.21;60.39;112049.66;4956199;28;20557;-80
2022/03/26 05:45:51;;;;;;;21.67;13.03;;;9.20;48.60;;;-142.21;61.28;112049.66;4938082;29;20465;-79
2022/03/26 05:48:19;;;;;;;21.30;12.47;;;9.20;49.10;;;-142.21;61.32;112049.66;4937289;29;20540;-80
2022/03/26 05:50:47;;;;;;;22.10;13.63;;;9.10;49.40;;;-142.21;60.44;112049.66;4941270;29;20536;-80
2022/03/26 05:53:14;;;;;;;21.87;13.60;;;9.00;49.00;;;-142.21;59.64;112049.66;4956174;29;20853;-80
2022/03/26 05:55:41;;;;;;;23.50;12.97;;;9.00;49.70;;;-142.21;61.09;112049.66;4956466;28;20968;-80
2022/03/26 05:58:10;;;;;;;21.10;13.30;;;9.10;49.60;;;-142.21;64.76;112049.66;4955929;28;20535;-79
2022/03/26 06:00:38;;;;;;;22.70;13.77;;;9.10;50.60;;;-142.21;64.22;112049.66;4956872;28;20806;-80
2022/03/26 06:03:07;;;;;;;26.33;13.80;;;9.40;49.60;;;-142.21;65.13;112049.66;4956541;28;20478;-79
2022/03/26 06:05:38;;;;;;;22.17;15.07;;;9.60;49.50;;;-142.21;65.83;112049.66;4955934;28;20457;-79
2022/03/26 06:08:08;;;;;;;23.03;13.37;;;9.70;49.70;;;-142.21;67.24;112049.66;4956257;29;20798;-80
2022/03/26 06:10:35;;;;;;;21.60;12.57;;;9.80;49.40;;;-142.21;67.04;112049.66;4955516;28;20488;-79
2022/03/26 06:13:02;;;;;;;20.90;12.93;;;9.80;49.20;;;-142.21;66.91;112049.66;4956404;28;20456;-79
2022/03/26 06:15:30;;;;;;;20.73;13.07;;;9.90;49.50;;;-142.21;66.86;112049.66;4955529;28;20941;-79
2022/03/26 06:17:57;;;;;;;22.40;13.03;;;9.90;49.80;;;-142.21;66.92;112049.66;4956431;28;20453;-79
2022/03/26 06:20:24;;;;;;;19.53;12.57;;;10.00;48.90;;;-142.21;65.04;112049.66;4955196;28;20538;-79
2022/03/26 06:22:53;;;;;;;23.00;13.03;;;10.10;48.60;;;-142.21;64.78;112049.66;4955593;28;20487;-80
2022/03/26 06:25:23;;;;;;;19.63;13.13;;;10.20;48.70;;;-142.21;66.22;112049.66;4956046;28;20449;-80
2022/03/26 06:27:51;;;;;;;23.77;12.37;;;10.30;49.60;;;-142.21;63.09;112049.66;4956024;28;20456;-80
2022/03/26 06:30:18;;;;;;;24.27;13.60;;;10.40;48.20;;;-142.21;60.99;112049.66;4955877;28;20457;-80
2022/03/26 06:32:45;;;;;;;18.77;12.03;;;10.50;47.60;;;-142.21;57.75;112049.66;4955053;28;20443;-78
2022/03/26 06:35:13;;;;;;;20.73;12.23;;;10.60;47.30;;;-142.21;57.31;112049.66;4955815;28;20453;-78
2022/03/26 06:37:40;;;;;;;21.07;13.17;;;10.80;47.20;;;-142.21;58.76;112049.66;4955275;28;20445;-79
2022/03/26 06:40:10;;;;;;;24.87;12.97;;;11.10;47.10;;;-142.21;63.05;112049.66;4954964;28;20504;-79
2022/03/26 06:42:37;;;;;;;20.00;11.80;;;11.50;48.50;;;-142.21;63.58;112049.66;4955169;28;20533;-78
2022/03/26 06:45:06;;;;;;;18.63;12.80;;;11.90;48.40;;;-142.21;64.22;112049.66;4955781;28;20453;-79
2022/03/26 06:47:33;;;;;;;22.53;13.10;;;12.30;47.40;;;-142.21;63.60;112049.66;4955684;28;20907;-79
2022/03/26 06:50:00;;;;;;;20.03;12.60;;;12.80;47.40;;;-142.21;60.91;112049.66;4955616;28;20524;-79
2022/03/26 06:52:27;;;;;;;21.73;13.30;;;13.10;45.40;;;-142.21;57.54;112049.66;4955411;28;20566;-79
2022/03/26 06:54:54;;;;;;;21.77;13.40;;;13.20;44.00;;;-142.21;60.46;112049.66;4954797;28;20472;-79
2022/03/26 06:57:24;;;;;;;18.70;12.47;;;13.30;45.00;;;-142.21;61.90;112049.66;4955731;29;20511;-78
2022/03/26 06:59:52;;;;;;;18.97;12.20;;;13.50;45.20;;;-142.21;63.06;112049.66;4954807;29;20504;-79
2022/03/26 07:02:19;;;;;;;21.40;13.23;;;13.90;45.00;;;-142.21;61.48;112049.66;4936670;29;20444;-79
2022/03/26 07:04:46;;;;;;;18.70;12.17;;;14.40;44.00;;;-142.21;61.57;112049.66;4936239;29;20450;-76
2022/03/26 07:07:14;;;;;;;20.43;13.33;;;14.60;43.50;;;-142.21;57.91;112049.66;4936548;29;20536;-78
2022/03/26 07:09:42;;;;;;;18.70;12.27;;;14.80;42.20;;;-142.21;57.58;112049.66;4937412;29;20497;-75
2022/03/26 07:12:11;;;;;;;21.57;13.73;;;15.00;41.90;;;-142.21;56.22;112049.66;4955476;29;20453;-77
2022/03/26 07:14:39;;;;;;;19.17;12.90;;;15.10;42.10;;;-142.21;56.39;112049.66;4956346;28;20464;-79
2022/03/26 07:17:07;;;;;;;21.70;13.57;;;15.20;41.90;;;-142.21;53.08;112049.66;4954647;28;20532;-78
2022/03/26 07:19:34;;;;;;;20.70;13.83;;;15.30;40.90;;;-142.21;52.75;112049.66;4954653;28;20476;-79
2022/03/26 07:22:01;;;;;;;20.57;13.00;;;15.80;40.90;;;-142.21;55.81;112049.66;4935524;29;20453;-79
2022/03/26 07:24:29;;;;;;;20.77;13.60;;;16.40;41.10;;;-142.21;53.29;112049.66;4935689;29;20513;-78
2022/03/26 07:26:56;;;;;;;15.87;11.83;;;16.80;39.60;;;-142.21;52.69;112049.66;4946798;29;20781;-78
2022/03/26 07:29:23;;;;;;;16.83;12.30;;;17.40;39.40;;;-142.21;55.96;112049.66;4954893;28;20496;-77
2022/03/26 07:31:52;;;;;;;18.27;12.70;;;17.80;39.20;;;-142.21;52.85;112049.66;4954584;28;20449;-79
2022/03/26 07:34:20;;;;;;;19.73;13.57;;;17.40;38.10;;;-142.21;50.56;112049.66;4953830;29;20453;-76
2022/03/26 07:36:47;;;;;;;22.47;13.20;;;16.90;38.00;;;-142.21;51.22;112049.66;4951894;29;20216;-76
2022/03/26 07:39:15;;;;;;;18.53;13.23;;;16.40;38.80;;;-142.21;50.42;112049.66;4935163;29;20473;-76
2022/03/26 07:41:42;;;;;;;18.10;12.63;;;16.30;39.20;;;-142.21;50.34;112049.66;4953836;29;20448;-78
2022/03/26 07:44:09;;;;;;;20.87;12.97;;;16.30;38.90;;;-142.21;49.20;112049.66;4953643;28;20481;-76
2022/03/26 07:46:37;;;;;;;17.93;12.63;;;16.40;39.00;;;-142.21;49.15;112049.66;4954505;28;20956;-77
2022/03/26 07:49:06;;;;;;;20.97;13.50;;;16.30;39.10;;;-142.21;50.00;112049.66;4952496;29;20531;-76
2022/03/26 07:51:35;;;;;;;19.23;12.37;;;16.90;39.20;;;-142.21;49.70;112049.66;4954574;28;20449;-77
2022/03/26 07:54:02;;;;;;;20.20;13.43;;;16.80;38.50;;;-142.21;50.78;112049.66;4954438;28;20799;-79
2022/03/26 07:56:29;;;;;;;19.27;12.43;;;16.60;38.80;;;-142.21;48.59;112049.66;4954304;28;20453;-78
2022/03/26 07:58:58;;;;;;;21.53;13.77;;;16.30;38.30;;;-142.21;53.46;112049.66;4954623;28;20479;-79
2022/03/26 08:01:25;;;;;;;20.67;12.90;;;16.20;40.40;;;-142.21;49.60;112049.66;4953818;28;20477;-77
2022/03/26 08:03:54;;;;;;;17.67;12.37;;;16.10;39.10;;;-142.21;49.45;112049.66;4954446;28;20492;-79
2022/03/26 08:06:23;;;;;;;19.07;12.60;;;16.20;39.20;;;-142.21;48.64;112049.66;4953692;28;20503;-80
2022/03/26 08:08:51;;;;;;;23.70;12.83;;;16.10;39.20;;;-142.21;48.28;112049.66;4954302;29;20551;-75
2022/03/26 08:11:19;;;;;;;19.03;12.60;;;16.10;39.30;;;-142.21;49.17;112049.66;4953888;28;20508;-75
2022/03/26 08:13:46;;;;;;;20.77;13.03;;;16.10;39.20;;;-142.21;46.39;112049.66;4954362;28;20488;-77
2022/03/26 08:16:13;;;;;;;17.07;12.33;;;15.90;39.40;;;-142.21;49.67;112049.66;4954691;28;20449;-78
2022/03/26 08:18:41;;;;;;;22.33;13.87;;;16.00;40.30;;;-142.21;47.25;112049.66;4953702;28;20473;-78
2022/03/26 08:21:10;;;;;;;18.20;12.07;;;16.00;39.80;;;-142.21;48.22;112049.66;4954559;28;20488;-77
2022/03/26 08:23:39;;;;;;;20.23;13.10;;;16.00;39.90;;;-142.21;44.69;112049.66;4953438;28;21067;-77
2022/03/26 08:26:22;;;;;;;21.27;13.37;;;16.20;37.70;;;-142.21;44.37;112049.66;4937175;29;20520;-79
2022/03/26 08:28:50;;;;;;;18.80;12.53;;;16.40;37.70;;;-142.21;45.11;112049.66;4954157;29;20477;-80
2022/03/26 08:31:18;;;;;;;18.20;12.50;;;16.50;38.20;;;-142.21;44.26;112049.66;4953832;28;20644;-77
2022/03/26 08:33:46;;;;;;;23.80;12.60;;;16.60;37.80;;;-142.21;45.38;112049.66;4953600;29;20452;-76
2022/03/26 08:36:15;;;;;;;21.47;12.83;;;16.70;37.40;;;-142.21;41.97;112049.66;4945690;28;20482;-79
2022/03/26 08:38:46;;;;;;;20.93;12.67;;;16.60;36.60;;;-142.21;41.64;112049.66;4934580;29;20528;-76
2022/03/26 08:41:14;;;;;;;18.97;11.83;;;16.50;37.00;;;-142.21;41.76;112049.66;4935073;29;20434;-74
2022/03/26 08:43:42;;;;;;;19.10;12.10;;;16.50;36.80;;;-142.21;40.91;112049.66;4934049;29;20556;-78
2022/03/26 08:46:09;;;;;;;20.87;12.83;;;16.90;36.80;;;-142.21;40.39;112049.66;4951162;29;20555;-78
2022/03/26 08:48:37;;;;;;;19.83;13.43;;;17.20;35.20;;;-142.21;40.05;112049.66;4953185;28;20489;-74
2022/03/26 08:51:05;;;;;;;17.83;12.70;;;17.10;35.40;;;-142.21;41.67;112049.66;4953718;28;20449;-75
2022/03/26 08:53:33;;;;;;;21.17;13.60;;;17.10;35.90;;;-142.21;42.80;112049.66;4953310;28;20473;-80
2022/03/26 08:56:04;;;;;;;21.33;13.80;;;17.00;36.50;;;-142.21;39.89;112049.66;4954321;28;20491;-79
2022/03/26 08:58:31;;;;;;;19.53;12.87;;;17.00;35.70;;;-142.21;40.96;112049.66;4953968;29;20443;-75
2022/03/26 09:00:58;;;;;;;20.70;13.13;;;17.40;36.10;;;-142.21;41.91;112049.66;4953449;28;20449;-79
2022/03/26 09:03:26;;;;;;;24.80;14.97;;;17.90;36.80;;;-142.21;40.77;112049.66;4954986;28;20437;-77
2022/03/26 09:05:54;;;;;;;19.77;14.57;;;19.20;35.40;;;-142.21;39.09;112049.66;4957478;28;20605;-75
2022/03/26 09:08:21;;;;;;;21.90;14.73;;;20.80;33.50;;;-142.21;39.48;112049.66;4957336;28;20739;-82
2022/03/26 09:10:48;;;;;;;21.77;14.90;;;22.40;32.00;;;-142.21;37.64;112049.66;4958201;28;20205;-76
2022/03/26 09:13:18;;;;;;;21.80;15.53;;;23.80;30.60;;;-142.21;38.60;112049.66;4958885;28;20201;-80
2022/03/26 09:15:45;;;;;;;23.33;14.87;;;25.30;29.80;;;-142.21;39.99;112049.66;4958075;28;20214;-81
2022/03/26 09:18:12;;;;;;;22.37;15.43;;;26.50;29.10;;;-142.21;38.96;112049.66;4957132;28;20287;-76
2022/03/26 09:20:40;;;;;;;19.47;15.07;;;27.20;27.60;;;-142.21;38.33;112049.66;4956868;28;20276;-78
2022/03/26 09:23:07;;;;;;;21.93;15.53;;;28.20;26.80;;;-142.21;37.32;112049.66;4956358;28;20237;-80
2022/03/26 09:25:36;;;;;;;20.23;15.30;;;29.00;24.90;;;-142.21;38.12;112049.66;4956882;28;20204;-80
2022/03/26 09:28:05;;;;;;;21.30;16.27;;;29.80;26.70;;;-142.21;37.62;112049.66;4956669;28;20222;-83
2022/03/26 09:30:34;;;;;;;18.77;15.00;;;30.50;25.30;;;-142.21;38.00;112049.66;4957182;28;20643;-83
2022/03/26 09:33:02;;;;;;;20.87;15.57;;;31.20;25.20;;;-142.21;38.50;112049.66;4939864;29;20246;-79
2022/03/26 09:35:30;;;;;;;21.73;15.47;;;31.70;24.80;;;-142.21;35.03;112049.66;4956977;28;20762;-76
2022/03/26 09:37:57;;;;;;;20.17;16.67;;;31.70;22.40;;;-142.21;35.93;112049.66;4955986;28;20659;-79
2022/03/26 09:40:26;;;;;;;20.83;15.93;;;31.20;22.60;;;-142.21;37.54;112049.66;4956862;28;20214;-83
2022/03/26 09:42:54;;;;;;;22.67;17.03;;;31.40;23.80;;;-142.21;37.30;112049.66;4956639;28;20209;-78
2022/03/26 09:45:22;;;;;;;21.87;17.13;;;32.00;23.10;;;-142.21;36.45;112049.66;4957089;28;20219;-81
2022/03/26 09:47:54;;;;;;;20.70;16.90;;;32.30;22.70;;;-142.21;36.31;112049.66;4956782;28;20745;-79
2022/03/26 09:50:21;;;;;;;24.00;17.30;;;32.40;22.80;;;-142.21;34.30;112049.66;4956821;29;20212;-79